BON326 FSIA-FAOR
Flight info
| Callsign | BON326 |
|---|---|
| Flight time | 4h 42m |
| Altitude | 34000 |
| Route | IMPOX1B IMPOX T150 GEXOM DCT 10S050E DCT SOAVI DCT 1430S045E DCT IMKIB UT517 VL UG466 EPSEK UZ33 NESAG UZ7 OKPIT OKPIT1D |
| Aircraft | A346/H-SDE2E3FGHIJ3J4J5M1RWXY/LB1D1 |
Departure
| Time | 2026-05-08 17:14 |
|---|---|
| Airport | Seychelles International Airport (FSIA) |
Arrival
| Time | 2026-05-08 21:56 |
|---|---|
| Airport | O.R. Tambo International Airport (FAOR) |
| Time | Latitude | Longitude | Altitude | Speed | Heading |
|---|---|---|---|---|---|
| 2026-05-08 16:14 | -4.67031 | 55.51171 | 29 ft | 0 kts | 214° |
| 2026-05-08 17:02 | -4.67025 | 55.51175 | 29 ft | 3 kts | 217° |
| 2026-05-08 17:02 | -4.67011 | 55.51189 | 28 ft | 3 kts | 237° |
| 2026-05-08 17:03 | -4.67005 | 55.51204 | 29 ft | 3 kts | 264° |
| 2026-05-08 17:03 | -4.67006 | 55.51220 | 29 ft | 3 kts | 281° |
| 2026-05-08 17:03 | -4.67011 | 55.51239 | 29 ft | 3 kts | 297° |
| 2026-05-08 17:03 | -4.67023 | 55.51257 | 29 ft | 3 kts | 309° |
| 2026-05-08 17:04 | -4.67037 | 55.51274 | 28 ft | 3 kts | 307° |
| 2026-05-08 17:04 | -4.67038 | 55.51275 | 28 ft | 3 kts | 307° |
| 2026-05-08 17:04 | -4.67023 | 55.51260 | 28 ft | 3 kts | 316° |
| 2026-05-08 17:04 | -4.67009 | 55.51244 | 28 ft | 3 kts | 306° |
| 2026-05-08 17:05 | -4.67004 | 55.51237 | 29 ft | 0 kts | 303° |
| 2026-05-08 17:09 | -4.67004 | 55.51236 | 29 ft | 0 kts | 303° |
| 2026-05-08 17:09 | -4.66997 | 55.51227 | 29 ft | 5 kts | 313° |
| 2026-05-08 17:09 | -4.66952 | 55.51202 | 29 ft | 9 kts | 343° |
| 2026-05-08 17:09 | -4.66893 | 55.51179 | 29 ft | 6 kts | 300° |
| 2026-05-08 17:10 | -4.66868 | 55.51133 | 29 ft | 9 kts | 312° |
| 2026-05-08 17:10 | -4.66823 | 55.51083 | 29 ft | 11 kts | 310° |
| 2026-05-08 17:10 | -4.66788 | 55.51043 | 29 ft | 6 kts | 311° |
| 2026-05-08 17:10 | -4.66769 | 55.51029 | 29 ft | 3 kts | 351° |
| 2026-05-08 17:11 | -4.66768 | 55.51029 | 29 ft | 0 kts | 351° |
| 2026-05-08 17:11 | -4.66749 | 55.51029 | 29 ft | 7 kts | 7° |
| 2026-05-08 17:12 | -4.66698 | 55.51052 | 29 ft | 3 kts | 36° |
| 2026-05-08 17:12 | -4.66693 | 55.51058 | 29 ft | 1 kts | 57° |
| 2026-05-08 17:12 | -4.66689 | 55.51067 | 31 ft | 5 kts | 67° |
| 2026-05-08 17:12 | -4.66695 | 55.51107 | 31 ft | 0 kts | 121° |
| 2026-05-08 17:13 | -4.66790 | 55.51255 | 31 ft | 59 kts | 125° |
| 2026-05-08 17:13 | -4.67154 | 55.51769 | 30 ft | 122 kts | 124° |
| 2026-05-08 17:13 | -4.67745 | 55.52627 | 30 ft | 173 kts | 126° |
| 2026-05-08 17:14 | -4.68470 | 55.53645 | 514 ft | 178 kts | 126° |
| 2026-05-08 17:14 | -4.69186 | 55.54669 | 1163 ft | 180 kts | 125° |
| 2026-05-08 17:14 | -4.69897 | 55.55707 | 1812 ft | 180 kts | 125° |
| 2026-05-08 17:14 | -4.70605 | 55.56762 | 2208 ft | 186 kts | 124° |
| 2026-05-08 17:15 | -4.71353 | 55.57850 | 2479 ft | 199 kts | 126° |
| 2026-05-08 17:15 | -4.72184 | 55.59022 | 2777 ft | 213 kts | 126° |
| 2026-05-08 17:15 | -4.73094 | 55.60264 | 3053 ft | 229 kts | 133° |
| 2026-05-08 17:15 | -4.74461 | 55.61161 | 3312 ft | 246 kts | 163° |
| 2026-05-08 17:16 | -4.76214 | 55.61230 | 3624 ft | 263 kts | 194° |
| 2026-05-08 17:16 | -4.77814 | 55.60314 | 4160 ft | 273 kts | 226° |
| 2026-05-08 17:16 | -4.78701 | 55.58629 | 4818 ft | 278 kts | 259° |
| 2026-05-08 17:16 | -4.78803 | 55.56683 | 5500 ft | 280 kts | 265° |
| 2026-05-08 17:17 | -4.79319 | 55.54808 | 6053 ft | 281 kts | 234° |
| 2026-05-08 17:17 | -4.80630 | 55.53367 | 6700 ft | 280 kts | 220° |
| 2026-05-08 17:17 | -4.82117 | 55.52092 | 7334 ft | 283 kts | 218° |
| 2026-05-08 17:17 | -4.83630 | 55.50844 | 7925 ft | 286 kts | 218° |
| 2026-05-08 17:18 | -4.85200 | 55.49551 | 8510 ft | 289 kts | 218° |
| 2026-05-08 17:18 | -4.86742 | 55.48276 | 9067 ft | 292 kts | 218° |
| 2026-05-08 17:18 | -4.88319 | 55.46965 | 9594 ft | 295 kts | 218° |
| 2026-05-08 17:18 | -4.89910 | 55.45637 | 10134 ft | 298 kts | 218° |
| 2026-05-08 17:19 | -4.91532 | 55.44285 | 10460 ft | 310 kts | 219° |
| 2026-05-08 17:19 | -4.93229 | 55.42868 | 10712 ft | 324 kts | 219° |
| 2026-05-08 17:19 | -4.94993 | 55.41392 | 10962 ft | 337 kts | 219° |
| 2026-05-08 17:19 | -4.96836 | 55.39851 | 11214 ft | 350 kts | 219° |
| 2026-05-08 17:20 | -4.98723 | 55.38271 | 11450 ft | 364 kts | 219° |
| 2026-05-08 17:20 | -5.00702 | 55.36614 | 11689 ft | 377 kts | 219° |
| 2026-05-08 17:20 | -5.02746 | 55.34902 | 11958 ft | 388 kts | 219° |
| 2026-05-08 17:20 | -5.04837 | 55.33150 | 12454 ft | 393 kts | 219° |
| 2026-05-08 17:21 | -5.06945 | 55.31384 | 13047 ft | 395 kts | 219° |
| 2026-05-08 17:21 | -5.09068 | 55.29607 | 13603 ft | 398 kts | 219° |
| 2026-05-08 17:21 | -5.11182 | 55.27784 | 14118 ft | 402 kts | 222° |
| 2026-05-08 17:21 | -5.13208 | 55.25838 | 14643 ft | 405 kts | 225° |
| 2026-05-08 17:22 | -5.15209 | 55.23833 | 15126 ft | 408 kts | 225° |
| 2026-05-08 17:22 | -5.17224 | 55.21801 | 15624 ft | 411 kts | 225° |
| 2026-05-08 17:22 | -5.19248 | 55.19759 | 16080 ft | 415 kts | 225° |
| 2026-05-08 17:22 | -5.21297 | 55.17694 | 16554 ft | 418 kts | 225° |
| 2026-05-08 17:23 | -5.23331 | 55.15645 | 17000 ft | 421 kts | 225° |
| 2026-05-08 17:23 | -5.25403 | 55.13558 | 17462 ft | 423 kts | 225° |
| 2026-05-08 17:23 | -5.27492 | 55.11454 | 17917 ft | 426 kts | 225° |
| 2026-05-08 17:23 | -5.29594 | 55.09336 | 18358 ft | 428 kts | 225° |
| 2026-05-08 17:24 | -5.31710 | 55.07204 | 18772 ft | 431 kts | 225° |
| 2026-05-08 17:24 | -5.33836 | 55.05061 | 19173 ft | 434 kts | 225° |
| 2026-05-08 17:24 | -5.35249 | 55.03637 | 19433 ft | 436 kts | 225° |
| 2026-05-08 17:24 | -5.37401 | 55.01469 | 19817 ft | 439 kts | 225° |
| 2026-05-08 17:25 | -5.40276 | 54.98571 | 20317 ft | 442 kts | 225° |
| 2026-05-08 17:25 | -5.41744 | 54.97091 | 20570 ft | 444 kts | 225° |
| 2026-05-08 17:25 | -5.43934 | 54.94884 | 20914 ft | 446 kts | 225° |
| 2026-05-08 17:25 | -5.46133 | 54.92667 | 21263 ft | 449 kts | 225° |
| 2026-05-08 17:26 | -5.48316 | 54.90468 | 21595 ft | 452 kts | 225° |
| 2026-05-08 17:26 | -5.50543 | 54.88223 | 21914 ft | 454 kts | 225° |
| 2026-05-08 17:26 | -5.52788 | 54.85959 | 22235 ft | 456 kts | 225° |
| 2026-05-08 17:26 | -5.55038 | 54.83689 | 22542 ft | 459 kts | 225° |
| 2026-05-08 17:27 | -5.58034 | 54.80669 | 22940 ft | 462 kts | 225° |
| 2026-05-08 17:27 | -5.59568 | 54.79121 | 23134 ft | 464 kts | 225° |
| 2026-05-08 17:27 | -5.61848 | 54.76820 | 23420 ft | 466 kts | 225° |
| 2026-05-08 17:27 | -5.64146 | 54.74501 | 23701 ft | 468 kts | 225° |
| 2026-05-08 17:28 | -5.66418 | 54.72208 | 23970 ft | 470 kts | 225° |
| 2026-05-08 17:28 | -5.68731 | 54.69873 | 24237 ft | 472 kts | 225° |
| 2026-05-08 17:28 | -5.71053 | 54.67531 | 24505 ft | 474 kts | 226° |
| 2026-05-08 17:28 | -5.73394 | 54.65167 | 24765 ft | 476 kts | 225° |
| 2026-05-08 17:29 | -5.75738 | 54.62800 | 25017 ft | 478 kts | 225° |
| 2026-05-08 17:29 | -5.78094 | 54.60421 | 25269 ft | 480 kts | 225° |
| 2026-05-08 17:29 | -5.80447 | 54.58044 | 25525 ft | 481 kts | 225° |
| 2026-05-08 17:29 | -5.82818 | 54.55649 | 25783 ft | 483 kts | 225° |
| 2026-05-08 17:30 | -5.85190 | 54.53253 | 26030 ft | 484 kts | 225° |
| 2026-05-08 17:30 | -5.87549 | 54.50870 | 26260 ft | 486 kts | 225° |
| 2026-05-08 17:30 | -5.89943 | 54.48451 | 26498 ft | 488 kts | 225° |
| 2026-05-08 17:30 | -5.92345 | 54.46024 | 26727 ft | 489 kts | 225° |
| 2026-05-08 17:31 | -5.94755 | 54.43588 | 26968 ft | 491 kts | 225° |
| 2026-05-08 17:31 | -5.97171 | 54.41145 | 27196 ft | 493 kts | 225° |
| 2026-05-08 17:31 | -5.99596 | 54.38694 | 27423 ft | 494 kts | 225° |
| 2026-05-08 17:31 | -6.02030 | 54.36233 | 27650 ft | 496 kts | 225° |
| 2026-05-08 17:32 | -6.04427 | 54.33810 | 27921 ft | 496 kts | 225° |
| 2026-05-08 17:32 | -6.06865 | 54.31344 | 28248 ft | 494 kts | 225° |
| 2026-05-08 17:32 | -6.09285 | 54.28895 | 28591 ft | 493 kts | 225° |
| 2026-05-08 17:32 | -6.11705 | 54.26446 | 28909 ft | 492 kts | 225° |
| 2026-05-08 17:33 | -6.14115 | 54.24007 | 29222 ft | 491 kts | 225° |
| 2026-05-08 17:33 | -6.16528 | 54.21566 | 29523 ft | 490 kts | 225° |
| 2026-05-08 17:33 | -6.18933 | 54.19131 | 29809 ft | 490 kts | 225° |
| 2026-05-08 17:33 | -6.21335 | 54.16700 | 30098 ft | 489 kts | 225° |
| 2026-05-08 17:34 | -6.23730 | 54.14275 | 30402 ft | 488 kts | 225° |
| 2026-05-08 17:34 | -6.26124 | 54.11850 | 30675 ft | 488 kts | 225° |
| 2026-05-08 17:34 | -6.28487 | 54.09457 | 30916 ft | 488 kts | 225° |
| 2026-05-08 17:34 | -6.30882 | 54.07031 | 31166 ft | 488 kts | 225° |
| 2026-05-08 17:35 | -6.33279 | 54.04603 | 31434 ft | 488 kts | 225° |
| 2026-05-08 17:35 | -6.35669 | 54.02181 | 31658 ft | 488 kts | 225° |
| 2026-05-08 17:35 | -6.38060 | 53.99758 | 31917 ft | 488 kts | 225° |
| 2026-05-08 17:35 | -6.40452 | 53.97332 | 32165 ft | 488 kts | 225° |
| 2026-05-08 17:36 | -6.42849 | 53.94902 | 32380 ft | 489 kts | 225° |
| 2026-05-08 17:36 | -6.45252 | 53.92464 | 32566 ft | 490 kts | 225° |
| 2026-05-08 17:36 | -6.47651 | 53.90029 | 32757 ft | 491 kts | 225° |
| 2026-05-08 17:36 | -6.50065 | 53.87580 | 32943 ft | 492 kts | 225° |
| 2026-05-08 17:37 | -6.52461 | 53.85149 | 33139 ft | 493 kts | 225° |
| 2026-05-08 17:37 | -6.54837 | 53.82653 | 33338 ft | 494 kts | 227° |
| 2026-05-08 17:37 | -6.57172 | 53.80116 | 33545 ft | 495 kts | 227° |
| 2026-05-08 17:37 | -6.59511 | 53.77559 | 33736 ft | 496 kts | 227° |
| 2026-05-08 17:38 | -6.61857 | 53.74990 | 33904 ft | 497 kts | 227° |
| 2026-05-08 17:38 | -6.64198 | 53.72424 | 33905 ft | 498 kts | 227° |
| 2026-05-08 17:38 | -6.68884 | 53.67292 | 33914 ft | 497 kts | 227° |
| 2026-05-08 17:39 | -6.73540 | 53.62191 | 33916 ft | 497 kts | 227° |
| 2026-05-08 17:39 | -6.78230 | 53.57053 | 33916 ft | 496 kts | 227° |
| 2026-05-08 17:40 | -6.82905 | 53.51928 | 33917 ft | 496 kts | 227° |
| 2026-05-08 17:40 | -6.87580 | 53.46804 | 33913 ft | 495 kts | 227° |
| 2026-05-08 17:41 | -6.92221 | 53.41714 | 33916 ft | 495 kts | 227° |
| 2026-05-08 17:41 | -6.96886 | 53.36595 | 33915 ft | 495 kts | 227° |
| 2026-05-08 17:42 | -7.01515 | 53.31517 | 33916 ft | 494 kts | 227° |
| 2026-05-08 17:42 | -7.06179 | 53.26397 | 33914 ft | 494 kts | 227° |
| 2026-05-08 17:43 | -7.10832 | 53.21288 | 33914 ft | 494 kts | 227° |
| 2026-05-08 17:43 | -7.15490 | 53.16170 | 33916 ft | 494 kts | 227° |
| 2026-05-08 17:44 | -7.20119 | 53.11084 | 33914 ft | 493 kts | 227° |
| 2026-05-08 17:44 | -7.24761 | 53.05982 | 33913 ft | 493 kts | 227° |
| 2026-05-08 17:45 | -7.29398 | 53.00884 | 33919 ft | 493 kts | 227° |
| 2026-05-08 17:45 | -7.34011 | 52.95811 | 33922 ft | 493 kts | 228° |
| 2026-05-08 17:46 | -7.38646 | 52.90711 | 33923 ft | 492 kts | 228° |
| 2026-05-08 17:46 | -7.43279 | 52.85612 | 33923 ft | 492 kts | 228° |
| 2026-05-08 17:47 | -7.47908 | 52.80516 | 33925 ft | 492 kts | 228° |
| 2026-05-08 17:47 | -7.51752 | 52.76282 | 33923 ft | 492 kts | 228° |
| 2026-05-08 17:48 | -7.57125 | 52.70363 | 33924 ft | 492 kts | 228° |
| 2026-05-08 17:48 | -7.61752 | 52.65263 | 33924 ft | 491 kts | 228° |
| 2026-05-08 17:49 | -7.66376 | 52.60167 | 33924 ft | 491 kts | 228° |
| 2026-05-08 17:49 | -7.70997 | 52.55070 | 33924 ft | 491 kts | 228° |
| 2026-05-08 17:50 | -7.75580 | 52.50014 | 33923 ft | 491 kts | 228° |
| 2026-05-08 17:50 | -7.80198 | 52.44917 | 33924 ft | 491 kts | 228° |
| 2026-05-08 17:51 | -7.84805 | 52.39831 | 33925 ft | 491 kts | 228° |
| 2026-05-08 17:51 | -7.89415 | 52.34740 | 33931 ft | 490 kts | 228° |
| 2026-05-08 17:52 | -7.94023 | 52.29650 | 33933 ft | 490 kts | 228° |
| 2026-05-08 17:53 | -8.00888 | 52.22060 | 33933 ft | 490 kts | 228° |
| 2026-05-08 17:53 | -8.05494 | 52.16967 | 33935 ft | 490 kts | 228° |
| 2026-05-08 17:54 | -8.10102 | 52.11870 | 33934 ft | 490 kts | 228° |
| 2026-05-08 17:54 | -8.14708 | 52.06773 | 33933 ft | 490 kts | 228° |
| 2026-05-08 17:55 | -8.19282 | 52.01709 | 33933 ft | 490 kts | 228° |
| 2026-05-08 17:55 | -8.23880 | 51.96618 | 33933 ft | 490 kts | 228° |
| 2026-05-08 17:56 | -8.28485 | 51.91516 | 33933 ft | 490 kts | 228° |
| 2026-05-08 17:56 | -8.33105 | 51.86395 | 33932 ft | 490 kts | 228° |
| 2026-05-08 17:57 | -8.37693 | 51.81309 | 33934 ft | 490 kts | 228° |
| 2026-05-08 17:57 | -8.42308 | 51.76192 | 33933 ft | 490 kts | 228° |
| 2026-05-08 17:58 | -8.46874 | 51.71124 | 33953 ft | 490 kts | 228° |
| 2026-05-08 17:58 | -8.51467 | 51.66026 | 33945 ft | 489 kts | 228° |
| 2026-05-08 17:59 | -8.56058 | 51.60929 | 33935 ft | 489 kts | 228° |
| 2026-05-08 17:59 | -8.60653 | 51.55824 | 33953 ft | 489 kts | 228° |
| 2026-05-08 18:00 | -8.65218 | 51.50753 | 33943 ft | 489 kts | 228° |
| 2026-05-08 18:00 | -8.72109 | 51.43091 | 33935 ft | 489 kts | 228° |
| 2026-05-08 18:01 | -8.76691 | 51.37995 | 33949 ft | 489 kts | 228° |
| 2026-05-08 18:01 | -8.81250 | 51.32920 | 33951 ft | 489 kts | 228° |
| 2026-05-08 18:02 | -8.85051 | 51.28690 | 33953 ft | 488 kts | 228° |
| 2026-05-08 18:02 | -8.90407 | 51.22727 | 33956 ft | 488 kts | 228° |
| 2026-05-08 18:03 | -8.94980 | 51.17631 | 33949 ft | 488 kts | 228° |
| 2026-05-08 18:03 | -8.99528 | 51.12562 | 33948 ft | 488 kts | 228° |
| 2026-05-08 18:04 | -9.04101 | 51.07464 | 33956 ft | 488 kts | 228° |
| 2026-05-08 18:04 | -9.08648 | 51.02392 | 33953 ft | 488 kts | 228° |
| 2026-05-08 18:05 | -9.13238 | 50.97271 | 33949 ft | 488 kts | 228° |
| 2026-05-08 18:05 | -9.17826 | 50.92148 | 33949 ft | 488 kts | 228° |
| 2026-05-08 18:06 | -9.22368 | 50.87075 | 33947 ft | 488 kts | 227° |
| 2026-05-08 18:06 | -9.26943 | 50.81964 | 33953 ft | 489 kts | 227° |
| 2026-05-08 18:07 | -9.31487 | 50.76887 | 33953 ft | 489 kts | 228° |
| 2026-05-08 18:07 | -9.36074 | 50.71756 | 33956 ft | 488 kts | 228° |
| 2026-05-08 18:08 | -9.40645 | 50.66641 | 33950 ft | 488 kts | 227° |
| 2026-05-08 18:08 | -9.44456 | 50.62375 | 33947 ft | 488 kts | 227° |
| 2026-05-08 18:09 | -9.49762 | 50.56435 | 33956 ft | 488 kts | 227° |
| 2026-05-08 18:09 | -9.54329 | 50.51319 | 33954 ft | 489 kts | 227° |
| 2026-05-08 18:10 | -9.58881 | 50.46218 | 33956 ft | 489 kts | 227° |
| 2026-05-08 18:10 | -9.63440 | 50.41100 | 33955 ft | 489 kts | 227° |
| 2026-05-08 18:11 | -9.67239 | 50.36839 | 33960 ft | 489 kts | 227° |
| 2026-05-08 18:11 | -9.72561 | 50.30871 | 33964 ft | 489 kts | 227° |
| 2026-05-08 18:12 | -9.77141 | 50.25729 | 33959 ft | 489 kts | 227° |
| 2026-05-08 18:12 | -9.80940 | 50.21462 | 33965 ft | 489 kts | 227° |
| 2026-05-08 18:13 | -9.85508 | 50.16328 | 33964 ft | 489 kts | 227° |
| 2026-05-08 18:13 | -9.90043 | 50.11227 | 33964 ft | 489 kts | 227° |
| 2026-05-08 18:14 | -9.94607 | 50.06090 | 33960 ft | 489 kts | 227° |
| 2026-05-08 18:14 | -9.99176 | 50.00948 | 33963 ft | 489 kts | 226° |
| 2026-05-08 18:15 | -10.03910 | 49.95965 | 33959 ft | 489 kts | 224° |
| 2026-05-08 18:15 | -10.08668 | 49.91059 | 33964 ft | 489 kts | 224° |
| 2026-05-08 18:16 | -10.13441 | 49.86128 | 33957 ft | 489 kts | 224° |
| 2026-05-08 18:16 | -10.18212 | 49.81189 | 33954 ft | 489 kts | 224° |
| 2026-05-08 18:17 | -10.22984 | 49.76246 | 33960 ft | 489 kts | 224° |
| 2026-05-08 18:17 | -10.27716 | 49.71340 | 33964 ft | 489 kts | 224° |
| 2026-05-08 18:18 | -10.32482 | 49.66394 | 33962 ft | 488 kts | 224° |
| 2026-05-08 18:18 | -10.37248 | 49.61449 | 33957 ft | 488 kts | 224° |
| 2026-05-08 18:19 | -10.41985 | 49.56531 | 33963 ft | 488 kts | 224° |
| 2026-05-08 18:19 | -10.46746 | 49.51587 | 33959 ft | 488 kts | 224° |
| 2026-05-08 18:20 | -10.51493 | 49.46652 | 33962 ft | 488 kts | 224° |
| 2026-05-08 18:20 | -10.56237 | 49.41720 | 33963 ft | 487 kts | 224° |
| 2026-05-08 18:21 | -10.60979 | 49.36789 | 33959 ft | 487 kts | 224° |
| 2026-05-08 18:21 | -10.65691 | 49.31886 | 33956 ft | 487 kts | 224° |
| 2026-05-08 18:22 | -10.70424 | 49.26956 | 33963 ft | 486 kts | 224° |
| 2026-05-08 18:22 | -10.75168 | 49.22015 | 33956 ft | 486 kts | 224° |
| 2026-05-08 18:23 | -10.79875 | 49.17110 | 33948 ft | 486 kts | 224° |
| 2026-05-08 18:23 | -10.84609 | 49.12175 | 33954 ft | 486 kts | 224° |
| 2026-05-08 18:24 | -10.89334 | 49.07245 | 33956 ft | 486 kts | 224° |
| 2026-05-08 18:24 | -10.94061 | 49.02311 | 33953 ft | 485 kts | 224° |
| 2026-05-08 18:25 | -10.98780 | 48.97384 | 33953 ft | 485 kts | 224° |
| 2026-05-08 18:25 | -11.03463 | 48.92492 | 33956 ft | 485 kts | 224° |
| 2026-05-08 18:26 | -11.08178 | 48.87564 | 33945 ft | 485 kts | 224° |
| 2026-05-08 18:26 | -11.12896 | 48.82631 | 33956 ft | 484 kts | 224° |
| 2026-05-08 18:27 | -11.16808 | 48.78538 | 33955 ft | 484 kts | 224° |
| 2026-05-08 18:27 | -11.22284 | 48.72807 | 33947 ft | 484 kts | 224° |
| 2026-05-08 18:28 | -11.26976 | 48.67891 | 33956 ft | 483 kts | 224° |
| 2026-05-08 18:28 | -11.31641 | 48.63004 | 33953 ft | 483 kts | 224° |
| 2026-05-08 18:29 | -11.36333 | 48.58086 | 33956 ft | 482 kts | 224° |
| 2026-05-08 18:29 | -11.41021 | 48.53170 | 33945 ft | 482 kts | 224° |
| 2026-05-08 18:30 | -11.45667 | 48.48294 | 33948 ft | 482 kts | 224° |
| 2026-05-08 18:30 | -11.50351 | 48.43376 | 33952 ft | 481 kts | 224° |
| 2026-05-08 18:31 | -11.54997 | 48.38495 | 33950 ft | 480 kts | 224° |
| 2026-05-08 18:31 | -11.59655 | 48.33601 | 33957 ft | 480 kts | 224° |
| 2026-05-08 18:32 | -11.64328 | 48.28688 | 33961 ft | 480 kts | 224° |
| 2026-05-08 18:32 | -11.68947 | 48.23829 | 33959 ft | 479 kts | 224° |
| 2026-05-08 18:33 | -11.73601 | 48.18929 | 33964 ft | 479 kts | 224° |
| 2026-05-08 18:33 | -11.78244 | 48.14040 | 33958 ft | 478 kts | 224° |
| 2026-05-08 18:34 | -11.82854 | 48.09182 | 33964 ft | 478 kts | 224° |
| 2026-05-08 18:34 | -11.87486 | 48.04300 | 33963 ft | 478 kts | 224° |
| 2026-05-08 18:35 | -11.92106 | 47.99427 | 33969 ft | 478 kts | 224° |
| 2026-05-08 18:35 | -11.96739 | 47.94537 | 33969 ft | 478 kts | 224° |
| 2026-05-08 18:36 | -12.01377 | 47.89640 | 33968 ft | 478 kts | 224° |
| 2026-05-08 18:36 | -12.05976 | 47.84781 | 33969 ft | 478 kts | 224° |
| 2026-05-08 18:37 | -12.10607 | 47.79887 | 33971 ft | 478 kts | 224° |
| 2026-05-08 18:37 | -12.15235 | 47.74992 | 33971 ft | 478 kts | 224° |
| 2026-05-08 18:38 | -12.19873 | 47.70085 | 33969 ft | 478 kts | 224° |
| 2026-05-08 18:38 | -12.24471 | 47.65215 | 33969 ft | 478 kts | 224° |
| 2026-05-08 18:39 | -12.29101 | 47.60312 | 33971 ft | 478 kts | 224° |
| 2026-05-08 18:39 | -12.33728 | 47.55409 | 33971 ft | 478 kts | 224° |
| 2026-05-08 18:40 | -12.38329 | 47.50529 | 33968 ft | 478 kts | 224° |
| 2026-05-08 18:40 | -12.42962 | 47.45614 | 33974 ft | 478 kts | 224° |
| 2026-05-08 18:41 | -12.47557 | 47.40737 | 33971 ft | 478 kts | 224° |
| 2026-05-08 18:41 | -12.52207 | 47.35797 | 33971 ft | 478 kts | 224° |
| 2026-05-08 18:42 | -12.56794 | 47.30922 | 33967 ft | 478 kts | 224° |
| 2026-05-08 18:42 | -12.61416 | 47.26008 | 33974 ft | 478 kts | 224° |
| 2026-05-08 18:43 | -12.66038 | 47.21091 | 33971 ft | 478 kts | 224° |
| 2026-05-08 18:43 | -12.70632 | 47.16201 | 33966 ft | 478 kts | 224° |
| 2026-05-08 18:44 | -12.75263 | 47.11267 | 33971 ft | 478 kts | 224° |
| 2026-05-08 18:44 | -12.79851 | 47.06378 | 33967 ft | 478 kts | 224° |
| 2026-05-08 18:45 | -12.84470 | 47.01453 | 33976 ft | 478 kts | 224° |
| 2026-05-08 18:45 | -12.89076 | 46.96540 | 33979 ft | 478 kts | 224° |
| 2026-05-08 18:46 | -12.93687 | 46.91618 | 33981 ft | 478 kts | 224° |
| 2026-05-08 18:46 | -12.98302 | 46.86688 | 33980 ft | 478 kts | 224° |
| 2026-05-08 18:47 | -13.02892 | 46.81783 | 33982 ft | 478 kts | 224° |
| 2026-05-08 18:47 | -13.07506 | 46.76849 | 33986 ft | 478 kts | 224° |
| 2026-05-08 18:48 | -13.12124 | 46.71908 | 33989 ft | 479 kts | 224° |
| 2026-05-08 18:48 | -13.16739 | 46.66967 | 33988 ft | 479 kts | 224° |
| 2026-05-08 18:49 | -13.21328 | 46.62050 | 33989 ft | 479 kts | 224° |
| 2026-05-08 18:49 | -13.25947 | 46.57099 | 33988 ft | 479 kts | 224° |
| 2026-05-08 18:50 | -13.30563 | 46.52148 | 33988 ft | 479 kts | 224° |
| 2026-05-08 18:50 | -13.35182 | 46.47190 | 33996 ft | 479 kts | 224° |
| 2026-05-08 18:51 | -13.39778 | 46.42254 | 34005 ft | 480 kts | 224° |
| 2026-05-08 18:51 | -13.44404 | 46.37281 | 34008 ft | 480 kts | 224° |
| 2026-05-08 18:52 | -13.49000 | 46.32338 | 34004 ft | 480 kts | 225° |
| 2026-05-08 18:52 | -13.53628 | 46.27353 | 34001 ft | 481 kts | 225° |
| 2026-05-08 18:53 | -13.58232 | 46.22359 | 34001 ft | 481 kts | 226° |
| 2026-05-08 18:53 | -13.62510 | 46.17035 | 34009 ft | 482 kts | 230° |
| 2026-05-08 18:54 | -13.66600 | 46.11605 | 34007 ft | 482 kts | 231° |
| 2026-05-08 18:54 | -13.70714 | 46.06127 | 34006 ft | 483 kts | 231° |
| 2026-05-08 18:55 | -13.76868 | 45.97937 | 34007 ft | 483 kts | 231° |
| 2026-05-08 18:56 | -13.80986 | 45.92454 | 34008 ft | 483 kts | 231° |
| 2026-05-08 18:56 | -13.85101 | 45.86971 | 34006 ft | 483 kts | 231° |
| 2026-05-08 18:57 | -13.89190 | 45.81521 | 34008 ft | 483 kts | 231° |
| 2026-05-08 18:57 | -13.93305 | 45.76031 | 34007 ft | 483 kts | 231° |
| 2026-05-08 18:58 | -13.96728 | 45.71463 | 34006 ft | 483 kts | 231° |
| 2026-05-08 18:58 | -14.01513 | 45.65073 | 34008 ft | 483 kts | 231° |
| 2026-05-08 18:59 | -14.04929 | 45.60508 | 34008 ft | 482 kts | 231° |
| 2026-05-08 18:59 | -14.09043 | 45.55007 | 34008 ft | 482 kts | 231° |
| 2026-05-08 19:00 | -14.13112 | 45.49563 | 34007 ft | 482 kts | 231° |
| 2026-05-08 19:00 | -14.17213 | 45.44070 | 34008 ft | 482 kts | 231° |
| 2026-05-08 19:01 | -14.21310 | 45.38579 | 34010 ft | 482 kts | 231° |
| 2026-05-08 19:01 | -14.25401 | 45.33094 | 34011 ft | 481 kts | 231° |
| 2026-05-08 19:02 | -14.29463 | 45.27643 | 34016 ft | 481 kts | 231° |
| 2026-05-08 19:02 | -14.33550 | 45.22153 | 34016 ft | 481 kts | 231° |
| 2026-05-08 19:03 | -14.37612 | 45.16693 | 34022 ft | 480 kts | 231° |
| 2026-05-08 19:03 | -14.41678 | 45.11220 | 34020 ft | 480 kts | 231° |
| 2026-05-08 19:04 | -14.45753 | 45.05734 | 34018 ft | 480 kts | 231° |
| 2026-05-08 19:04 | -14.50000 | 45.00403 | 34014 ft | 479 kts | 226° |
| 2026-05-08 19:05 | -14.54730 | 44.95549 | 34013 ft | 479 kts | 221° |
| 2026-05-08 19:05 | -14.59625 | 44.90932 | 34021 ft | 479 kts | 221° |
| 2026-05-08 19:06 | -14.64545 | 44.86298 | 34027 ft | 478 kts | 221° |
| 2026-05-08 19:06 | -14.69467 | 44.81653 | 34022 ft | 478 kts | 221° |
| 2026-05-08 19:07 | -14.74381 | 44.77008 | 34025 ft | 478 kts | 221° |
| 2026-05-08 19:07 | -14.79292 | 44.72361 | 34026 ft | 478 kts | 221° |
| 2026-05-08 19:08 | -14.84201 | 44.67713 | 34032 ft | 478 kts | 221° |
| 2026-05-08 19:08 | -14.89111 | 44.63061 | 34029 ft | 478 kts | 222° |
| 2026-05-08 19:09 | -14.93989 | 44.58436 | 34027 ft | 478 kts | 222° |
| 2026-05-08 19:09 | -14.98898 | 44.53778 | 34022 ft | 478 kts | 222° |
| 2026-05-08 19:10 | -15.03808 | 44.49117 | 34024 ft | 478 kts | 222° |
| 2026-05-08 19:10 | -15.08683 | 44.44486 | 34023 ft | 478 kts | 222° |
| 2026-05-08 19:11 | -15.13591 | 44.39821 | 34028 ft | 478 kts | 222° |
| 2026-05-08 19:11 | -15.18499 | 44.35152 | 34024 ft | 478 kts | 222° |
| 2026-05-08 19:12 | -15.23396 | 44.30491 | 34016 ft | 478 kts | 222° |
| 2026-05-08 19:12 | -15.28277 | 44.25842 | 34018 ft | 478 kts | 222° |
| 2026-05-08 19:13 | -15.33192 | 44.21158 | 34018 ft | 478 kts | 222° |
| 2026-05-08 19:13 | -15.38099 | 44.16477 | 34018 ft | 478 kts | 222° |
| 2026-05-08 19:14 | -15.42971 | 44.11827 | 34016 ft | 478 kts | 223° |
| 2026-05-08 19:14 | -15.47878 | 44.07140 | 34019 ft | 478 kts | 223° |
| 2026-05-08 19:15 | -15.52787 | 44.02449 | 34015 ft | 478 kts | 223° |
| 2026-05-08 19:15 | -15.57652 | 43.97796 | 34017 ft | 479 kts | 223° |
| 2026-05-08 19:16 | -15.62559 | 43.93101 | 34017 ft | 479 kts | 223° |
| 2026-05-08 19:16 | -15.67474 | 43.88393 | 34016 ft | 479 kts | 223° |
| 2026-05-08 19:17 | -15.72375 | 43.83696 | 34023 ft | 479 kts | 223° |
| 2026-05-08 19:17 | -15.77239 | 43.79032 | 34047 ft | 479 kts | 223° |
| 2026-05-08 19:18 | -15.82145 | 43.74325 | 34052 ft | 479 kts | 223° |
| 2026-05-08 19:18 | -15.87038 | 43.69626 | 34053 ft | 478 kts | 223° |
| 2026-05-08 19:19 | -15.91935 | 43.64920 | 34055 ft | 478 kts | 223° |
| 2026-05-08 19:19 | -15.96798 | 43.60243 | 34055 ft | 478 kts | 223° |
| 2026-05-08 19:20 | -16.01690 | 43.55535 | 34054 ft | 479 kts | 223° |
| 2026-05-08 19:20 | -16.06594 | 43.50816 | 34055 ft | 478 kts | 223° |
| 2026-05-08 19:21 | -16.11476 | 43.46112 | 34054 ft | 478 kts | 223° |
| 2026-05-08 19:21 | -16.16333 | 43.41427 | 34054 ft | 478 kts | 223° |
| 2026-05-08 19:22 | -16.21231 | 43.36700 | 34054 ft | 478 kts | 223° |
| 2026-05-08 19:22 | -16.26082 | 43.32016 | 34053 ft | 478 kts | 223° |
| 2026-05-08 19:23 | -16.30979 | 43.27283 | 34054 ft | 478 kts | 223° |
| 2026-05-08 19:23 | -16.35866 | 43.22558 | 34054 ft | 478 kts | 223° |
| 2026-05-08 19:24 | -16.40715 | 43.17865 | 34054 ft | 478 kts | 223° |
| 2026-05-08 19:24 | -16.45594 | 43.13140 | 34055 ft | 478 kts | 224° |
| 2026-05-08 19:25 | -16.50473 | 43.08412 | 34054 ft | 478 kts | 224° |
| 2026-05-08 19:25 | -16.55356 | 43.03676 | 34053 ft | 478 kts | 224° |
| 2026-05-08 19:26 | -16.60235 | 42.98940 | 34053 ft | 478 kts | 224° |
| 2026-05-08 19:26 | -16.65083 | 42.94233 | 34054 ft | 478 kts | 224° |
| 2026-05-08 19:27 | -16.69954 | 42.89499 | 34054 ft | 478 kts | 224° |
| 2026-05-08 19:27 | -16.74829 | 42.84756 | 34052 ft | 478 kts | 224° |
| 2026-05-08 19:28 | -16.79671 | 42.80043 | 34053 ft | 478 kts | 224° |
| 2026-05-08 19:28 | -16.84551 | 42.75289 | 34055 ft | 478 kts | 224° |
| 2026-05-08 19:29 | -16.89422 | 42.70542 | 34052 ft | 478 kts | 224° |
| 2026-05-08 19:29 | -16.94259 | 42.65823 | 34054 ft | 478 kts | 224° |
| 2026-05-08 19:30 | -16.99126 | 42.61072 | 34053 ft | 478 kts | 224° |
| 2026-05-08 19:30 | -17.03992 | 42.56318 | 34055 ft | 477 kts | 224° |
| 2026-05-08 19:31 | -17.08818 | 42.51599 | 34052 ft | 477 kts | 224° |
| 2026-05-08 19:31 | -17.13671 | 42.46851 | 34054 ft | 477 kts | 224° |
| 2026-05-08 19:32 | -17.18536 | 42.42088 | 34053 ft | 477 kts | 224° |
| 2026-05-08 19:32 | -17.23388 | 42.37333 | 34053 ft | 477 kts | 224° |
| 2026-05-08 19:33 | -17.28209 | 42.32605 | 34053 ft | 477 kts | 224° |
| 2026-05-08 19:33 | -17.33055 | 42.27850 | 34052 ft | 477 kts | 225° |
| 2026-05-08 19:34 | -17.37905 | 42.23086 | 34053 ft | 477 kts | 225° |
| 2026-05-08 19:34 | -17.42723 | 42.18351 | 34054 ft | 476 kts | 225° |
| 2026-05-08 19:35 | -17.47565 | 42.13588 | 34049 ft | 477 kts | 225° |
| 2026-05-08 19:35 | -17.52417 | 42.08812 | 34050 ft | 476 kts | 225° |
| 2026-05-08 19:36 | -17.57250 | 42.04050 | 34050 ft | 476 kts | 225° |
| 2026-05-08 19:36 | -17.62051 | 41.99317 | 34051 ft | 476 kts | 225° |
| 2026-05-08 19:37 | -17.66888 | 41.94544 | 34051 ft | 477 kts | 225° |
| 2026-05-08 19:37 | -17.71725 | 41.89769 | 34051 ft | 476 kts | 225° |
| 2026-05-08 19:38 | -17.76524 | 41.85026 | 34052 ft | 476 kts | 225° |
| 2026-05-08 19:38 | -17.81353 | 41.80249 | 34055 ft | 476 kts | 225° |
| 2026-05-08 19:39 | -17.86174 | 41.75477 | 34053 ft | 476 kts | 225° |
| 2026-05-08 19:39 | -17.90997 | 41.70700 | 34054 ft | 476 kts | 225° |
| 2026-05-08 19:40 | -17.95830 | 41.65909 | 34035 ft | 476 kts | 225° |
| 2026-05-08 19:40 | -18.00612 | 41.61165 | 34013 ft | 476 kts | 225° |
| 2026-05-08 19:41 | -18.05441 | 41.56374 | 34002 ft | 475 kts | 225° |
| 2026-05-08 19:41 | -18.10256 | 41.51588 | 34000 ft | 475 kts | 225° |
| 2026-05-08 19:42 | -18.15041 | 41.46830 | 33997 ft | 475 kts | 225° |
| 2026-05-08 19:42 | -18.19843 | 41.42051 | 33996 ft | 475 kts | 226° |
| 2026-05-08 19:43 | -18.24651 | 41.37262 | 33998 ft | 474 kts | 226° |
| 2026-05-08 19:43 | -18.29448 | 41.32481 | 34008 ft | 474 kts | 226° |
| 2026-05-08 19:44 | -18.34239 | 41.27700 | 34047 ft | 474 kts | 226° |
| 2026-05-08 19:44 | -18.38999 | 41.22948 | 34045 ft | 473 kts | 226° |
| 2026-05-08 19:45 | -18.43778 | 41.18172 | 34030 ft | 473 kts | 226° |
| 2026-05-08 19:45 | -18.47752 | 41.14198 | 34045 ft | 473 kts | 226° |
| 2026-05-08 19:46 | -18.52531 | 41.09416 | 34046 ft | 472 kts | 226° |
| 2026-05-08 19:46 | -18.59682 | 41.02251 | 34045 ft | 472 kts | 226° |
| 2026-05-08 19:47 | -18.64416 | 40.97503 | 34047 ft | 472 kts | 227° |
| 2026-05-08 19:47 | -18.69169 | 40.92732 | 34048 ft | 472 kts | 227° |
| 2026-05-08 19:48 | -18.73928 | 40.87951 | 34046 ft | 471 kts | 227° |
| 2026-05-08 19:48 | -18.78683 | 40.83169 | 34044 ft | 471 kts | 227° |
| 2026-05-08 19:49 | -18.83431 | 40.78388 | 34046 ft | 471 kts | 227° |
| 2026-05-08 19:49 | -18.88140 | 40.73641 | 34037 ft | 470 kts | 227° |
| 2026-05-08 19:50 | -18.92873 | 40.68868 | 34012 ft | 470 kts | 227° |
| 2026-05-08 19:50 | -18.97466 | 40.63959 | 33999 ft | 467 kts | 232° |
| 2026-05-08 19:51 | -19.01549 | 40.58639 | 34000 ft | 464 kts | 237° |
| 2026-05-08 19:51 | -19.05097 | 40.52955 | 33999 ft | 462 kts | 241° |
| 2026-05-08 19:52 | -19.08466 | 40.47156 | 33999 ft | 462 kts | 242° |
| 2026-05-08 19:52 | -19.11823 | 40.41361 | 33998 ft | 461 kts | 242° |
| 2026-05-08 19:53 | -19.15155 | 40.35607 | 33998 ft | 461 kts | 242° |
| 2026-05-08 19:53 | -19.18502 | 40.29824 | 33998 ft | 460 kts | 242° |
| 2026-05-08 19:54 | -19.21848 | 40.24040 | 33998 ft | 459 kts | 242° |
| 2026-05-08 19:54 | -19.25184 | 40.18269 | 33998 ft | 459 kts | 242° |
| 2026-05-08 19:55 | -19.28512 | 40.12505 | 33998 ft | 458 kts | 242° |
| 2026-05-08 19:55 | -19.31819 | 40.06773 | 33998 ft | 457 kts | 242° |
| 2026-05-08 19:56 | -19.35137 | 40.01014 | 33998 ft | 457 kts | 242° |
| 2026-05-08 19:56 | -19.38457 | 39.95252 | 33997 ft | 455 kts | 243° |
| 2026-05-08 19:57 | -19.41754 | 39.89519 | 33997 ft | 454 kts | 243° |
| 2026-05-08 19:57 | -19.45043 | 39.83794 | 33998 ft | 454 kts | 243° |
| 2026-05-08 19:58 | -19.48307 | 39.78106 | 33999 ft | 453 kts | 243° |
| 2026-05-08 19:58 | -19.51591 | 39.72379 | 33998 ft | 453 kts | 243° |
| 2026-05-08 19:59 | -19.54869 | 39.66659 | 33998 ft | 453 kts | 243° |
| 2026-05-08 19:59 | -19.58149 | 39.60930 | 33999 ft | 453 kts | 243° |
| 2026-05-08 20:00 | -19.61406 | 39.55236 | 33998 ft | 452 kts | 243° |
| 2026-05-08 20:00 | -19.64675 | 39.49514 | 33998 ft | 452 kts | 243° |
| 2026-05-08 20:01 | -19.67922 | 39.43825 | 33998 ft | 452 kts | 243° |
| 2026-05-08 20:01 | -19.71193 | 39.38089 | 33998 ft | 452 kts | 243° |
| 2026-05-08 20:02 | -19.74427 | 39.32412 | 33999 ft | 452 kts | 243° |
| 2026-05-08 20:02 | -19.77689 | 39.26683 | 34001 ft | 451 kts | 243° |
| 2026-05-08 20:03 | -19.80937 | 39.20973 | 34009 ft | 451 kts | 243° |
| 2026-05-08 20:03 | -19.84191 | 39.15242 | 34021 ft | 450 kts | 243° |
| 2026-05-08 20:04 | -19.87407 | 39.09577 | 34017 ft | 450 kts | 243° |
| 2026-05-08 20:04 | -19.90646 | 39.03863 | 34017 ft | 449 kts | 243° |
| 2026-05-08 20:05 | -19.93873 | 38.98167 | 34015 ft | 448 kts | 243° |
| 2026-05-08 20:05 | -19.97078 | 38.92504 | 34020 ft | 448 kts | 243° |
| 2026-05-08 20:06 | -20.00289 | 38.86824 | 34013 ft | 447 kts | 243° |
| 2026-05-08 20:06 | -20.03473 | 38.81192 | 34015 ft | 443 kts | 243° |
| 2026-05-08 20:07 | -20.06644 | 38.75574 | 34020 ft | 442 kts | 244° |
| 2026-05-08 20:07 | -20.09814 | 38.69944 | 34016 ft | 441 kts | 243° |
| 2026-05-08 20:08 | -20.12986 | 38.64311 | 34016 ft | 441 kts | 244° |
| 2026-05-08 20:08 | -20.16121 | 38.58738 | 34013 ft | 440 kts | 244° |
| 2026-05-08 20:09 | -20.19272 | 38.53131 | 34016 ft | 440 kts | 244° |
| 2026-05-08 20:09 | -20.22421 | 38.47523 | 34021 ft | 440 kts | 244° |
| 2026-05-08 20:10 | -20.25553 | 38.41939 | 34019 ft | 440 kts | 244° |
| 2026-05-08 20:10 | -20.28698 | 38.36326 | 34031 ft | 440 kts | 244° |
| 2026-05-08 20:11 | -20.31835 | 38.30726 | 34025 ft | 439 kts | 244° |
| 2026-05-08 20:11 | -20.34968 | 38.25124 | 34027 ft | 439 kts | 244° |
| 2026-05-08 20:12 | -20.38096 | 38.19527 | 34026 ft | 439 kts | 244° |
| 2026-05-08 20:12 | -20.41199 | 38.13967 | 34028 ft | 439 kts | 244° |
| 2026-05-08 20:13 | -20.44332 | 38.08350 | 34034 ft | 439 kts | 244° |
| 2026-05-08 20:13 | -20.47443 | 38.02766 | 34025 ft | 439 kts | 244° |
| 2026-05-08 20:14 | -20.50559 | 37.97167 | 34028 ft | 439 kts | 244° |
| 2026-05-08 20:14 | -20.53676 | 37.91562 | 34022 ft | 438 kts | 244° |
| 2026-05-08 20:15 | -20.56794 | 37.85949 | 34028 ft | 438 kts | 244° |
| 2026-05-08 20:15 | -20.59887 | 37.80374 | 34022 ft | 438 kts | 244° |
| 2026-05-08 20:16 | -20.62994 | 37.74769 | 34025 ft | 438 kts | 244° |
| 2026-05-08 20:16 | -20.66104 | 37.69154 | 34024 ft | 438 kts | 244° |
| 2026-05-08 20:17 | -20.69188 | 37.63578 | 34027 ft | 438 kts | 244° |
| 2026-05-08 20:17 | -20.72296 | 37.57954 | 34017 ft | 438 kts | 244° |
| 2026-05-08 20:18 | -20.75396 | 37.52338 | 34014 ft | 437 kts | 244° |
| 2026-05-08 20:18 | -20.78487 | 37.46729 | 34014 ft | 437 kts | 244° |
| 2026-05-08 20:19 | -20.81561 | 37.41143 | 34017 ft | 437 kts | 244° |
| 2026-05-08 20:19 | -20.84653 | 37.35520 | 34016 ft | 437 kts | 244° |
| 2026-05-08 20:20 | -20.87757 | 37.29921 | 34019 ft | 437 kts | 244° |
| 2026-05-08 20:20 | -20.90869 | 37.24372 | 34020 ft | 437 kts | 244° |
| 2026-05-08 20:21 | -20.94002 | 37.18778 | 34016 ft | 437 kts | 244° |
| 2026-05-08 20:21 | -20.97134 | 37.13169 | 34018 ft | 437 kts | 244° |
| 2026-05-08 20:22 | -21.00230 | 37.07616 | 34016 ft | 436 kts | 244° |
| 2026-05-08 20:22 | -21.02840 | 37.02928 | 34021 ft | 436 kts | 244° |
| 2026-05-08 20:23 | -21.06446 | 36.96443 | 34016 ft | 436 kts | 244° |
| 2026-05-08 20:23 | -21.09556 | 36.90842 | 34015 ft | 436 kts | 244° |
| 2026-05-08 20:24 | -21.12664 | 36.85239 | 34015 ft | 436 kts | 244° |
| 2026-05-08 20:24 | -21.15768 | 36.79639 | 34013 ft | 436 kts | 244° |
| 2026-05-08 20:25 | -21.18850 | 36.74072 | 34017 ft | 436 kts | 244° |
| 2026-05-08 20:25 | -21.21951 | 36.68466 | 34015 ft | 436 kts | 244° |
| 2026-05-08 20:26 | -21.25049 | 36.62858 | 34016 ft | 436 kts | 244° |
| 2026-05-08 20:26 | -21.28148 | 36.57244 | 34015 ft | 436 kts | 244° |
| 2026-05-08 20:27 | -21.31222 | 36.51669 | 34020 ft | 436 kts | 244° |
| 2026-05-08 20:27 | -21.34317 | 36.46052 | 34020 ft | 436 kts | 244° |
| 2026-05-08 20:28 | -21.37404 | 36.40441 | 34014 ft | 436 kts | 244° |
| 2026-05-08 20:28 | -21.40468 | 36.34867 | 34015 ft | 436 kts | 244° |
| 2026-05-08 20:29 | -21.43551 | 36.29255 | 34009 ft | 436 kts | 244° |
| 2026-05-08 20:29 | -21.46638 | 36.23626 | 34008 ft | 436 kts | 244° |
| 2026-05-08 20:30 | -21.49725 | 36.17992 | 34006 ft | 436 kts | 244° |
| 2026-05-08 20:30 | -21.52806 | 36.12364 | 34007 ft | 436 kts | 244° |
| 2026-05-08 20:31 | -21.55865 | 36.06771 | 34011 ft | 436 kts | 244° |
| 2026-05-08 20:31 | -21.58942 | 36.01138 | 34008 ft | 436 kts | 245° |
| 2026-05-08 20:32 | -21.61498 | 35.96455 | 34008 ft | 436 kts | 245° |
| 2026-05-08 20:32 | -21.65070 | 35.89903 | 34006 ft | 436 kts | 245° |
| 2026-05-08 20:33 | -21.67625 | 35.85211 | 34007 ft | 436 kts | 245° |
| 2026-05-08 20:33 | -21.70692 | 35.79574 | 34009 ft | 436 kts | 245° |
| 2026-05-08 20:34 | -21.73757 | 35.73935 | 34006 ft | 436 kts | 245° |
| 2026-05-08 20:35 | -21.78348 | 35.65476 | 34004 ft | 436 kts | 245° |
| 2026-05-08 20:35 | -21.81395 | 35.59855 | 34005 ft | 435 kts | 245° |
| 2026-05-08 20:36 | -21.84447 | 35.54216 | 34009 ft | 435 kts | 245° |
| 2026-05-08 20:36 | -21.87499 | 35.48568 | 34005 ft | 435 kts | 245° |
| 2026-05-08 20:37 | -21.90545 | 35.42924 | 34010 ft | 435 kts | 245° |
| 2026-05-08 20:37 | -21.93573 | 35.37309 | 34006 ft | 435 kts | 245° |
| 2026-05-08 20:38 | -21.96507 | 35.31600 | 34006 ft | 433 kts | 248° |
| 2026-05-08 20:38 | -21.98951 | 35.25663 | 34007 ft | 430 kts | 253° |
| 2026-05-08 20:39 | -22.00933 | 35.19620 | 34007 ft | 429 kts | 255° |
| 2026-05-08 20:39 | -22.02863 | 35.13522 | 34007 ft | 429 kts | 255° |
| 2026-05-08 20:40 | -22.04785 | 35.07421 | 34006 ft | 429 kts | 255° |
| 2026-05-08 20:40 | -22.06704 | 35.01322 | 34008 ft | 428 kts | 255° |
| 2026-05-08 20:41 | -22.08603 | 34.95273 | 34007 ft | 428 kts | 255° |
| 2026-05-08 20:41 | -22.10515 | 34.89172 | 34008 ft | 428 kts | 255° |
| 2026-05-08 20:42 | -22.12424 | 34.83074 | 34011 ft | 427 kts | 255° |
| 2026-05-08 20:42 | -22.14327 | 34.76978 | 34012 ft | 427 kts | 255° |
| 2026-05-08 20:43 | -22.16214 | 34.70920 | 34014 ft | 427 kts | 255° |
| 2026-05-08 20:43 | -22.18125 | 34.64839 | 34015 ft | 427 kts | 254° |
| 2026-05-08 20:44 | -22.20403 | 34.58885 | 34018 ft | 429 kts | 250° |
| 2026-05-08 20:44 | -22.22902 | 34.53001 | 34019 ft | 430 kts | 250° |
| 2026-05-08 20:45 | -22.25386 | 34.47158 | 34022 ft | 430 kts | 250° |
| 2026-05-08 20:45 | -22.27882 | 34.41283 | 34024 ft | 429 kts | 250° |
| 2026-05-08 20:46 | -22.30377 | 34.35399 | 34024 ft | 429 kts | 250° |
| 2026-05-08 20:46 | -22.32852 | 34.29556 | 34024 ft | 429 kts | 250° |
| 2026-05-08 20:47 | -22.35341 | 34.23673 | 34028 ft | 429 kts | 250° |
| 2026-05-08 20:47 | -22.37829 | 34.17785 | 34032 ft | 429 kts | 250° |
| 2026-05-08 20:48 | -22.40314 | 34.11896 | 34031 ft | 429 kts | 250° |
| 2026-05-08 20:48 | -22.42780 | 34.06046 | 34032 ft | 429 kts | 250° |
| 2026-05-08 20:49 | -22.45260 | 34.00149 | 34033 ft | 429 kts | 250° |
| 2026-05-08 20:49 | -22.47734 | 33.94261 | 34038 ft | 429 kts | 251° |
| 2026-05-08 20:50 | -22.50192 | 33.88406 | 34030 ft | 429 kts | 250° |
| 2026-05-08 20:50 | -22.52675 | 33.82520 | 34047 ft | 429 kts | 250° |
| 2026-05-08 20:51 | -22.55141 | 33.76665 | 34032 ft | 429 kts | 250° |
| 2026-05-08 20:51 | -22.57611 | 33.70784 | 34047 ft | 429 kts | 251° |
| 2026-05-08 20:52 | -22.60077 | 33.64902 | 34047 ft | 428 kts | 251° |
| 2026-05-08 20:52 | -22.62529 | 33.59044 | 34032 ft | 428 kts | 251° |
| 2026-05-08 20:53 | -22.64989 | 33.53157 | 34051 ft | 428 kts | 251° |
| 2026-05-08 20:53 | -22.67448 | 33.47268 | 34052 ft | 428 kts | 251° |
| 2026-05-08 20:54 | -22.69910 | 33.41366 | 34051 ft | 428 kts | 251° |
| 2026-05-08 20:54 | -22.72346 | 33.35515 | 34052 ft | 428 kts | 251° |
| 2026-05-08 20:55 | -22.74805 | 33.29599 | 34052 ft | 428 kts | 251° |
| 2026-05-08 20:55 | -22.77252 | 33.23706 | 34058 ft | 428 kts | 251° |
| 2026-05-08 20:56 | -22.79683 | 33.17844 | 34062 ft | 428 kts | 251° |
| 2026-05-08 20:56 | -22.82124 | 33.11950 | 34062 ft | 428 kts | 251° |
| 2026-05-08 20:57 | -22.84563 | 33.06050 | 34063 ft | 428 kts | 251° |
| 2026-05-08 20:57 | -22.86997 | 33.00152 | 34063 ft | 427 kts | 251° |
| 2026-05-08 20:58 | -22.89420 | 32.94279 | 34068 ft | 427 kts | 251° |
| 2026-05-08 20:58 | -22.91860 | 32.88376 | 34072 ft | 427 kts | 251° |
| 2026-05-08 20:59 | -22.94293 | 32.82477 | 34068 ft | 427 kts | 251° |
| 2026-05-08 20:59 | -22.96704 | 32.76616 | 34072 ft | 427 kts | 251° |
| 2026-05-08 21:00 | -22.99127 | 32.70713 | 34071 ft | 427 kts | 251° |
| 2026-05-08 21:00 | -23.01552 | 32.64796 | 34078 ft | 427 kts | 251° |
| 2026-05-08 21:01 | -23.03958 | 32.58920 | 34082 ft | 426 kts | 251° |
| 2026-05-08 21:01 | -23.06367 | 32.53024 | 34082 ft | 426 kts | 251° |
| 2026-05-08 21:02 | -23.08766 | 32.47140 | 34079 ft | 426 kts | 251° |
| 2026-05-08 21:02 | -23.11169 | 32.41239 | 34080 ft | 426 kts | 251° |
| 2026-05-08 21:03 | -23.13573 | 32.35331 | 34080 ft | 426 kts | 251° |
| 2026-05-08 21:03 | -23.15956 | 32.29468 | 34080 ft | 426 kts | 251° |
| 2026-05-08 21:04 | -23.18348 | 32.23575 | 34085 ft | 425 kts | 251° |
| 2026-05-08 21:04 | -23.20743 | 32.17666 | 34088 ft | 425 kts | 251° |
| 2026-05-08 21:05 | -23.23113 | 32.11806 | 34091 ft | 425 kts | 252° |
| 2026-05-08 21:05 | -23.25494 | 32.05915 | 34089 ft | 424 kts | 252° |
| 2026-05-08 21:06 | -23.27873 | 32.00031 | 34093 ft | 424 kts | 252° |
| 2026-05-08 21:06 | -23.30250 | 31.94139 | 34089 ft | 423 kts | 252° |
| 2026-05-08 21:07 | -23.32614 | 31.88259 | 34090 ft | 423 kts | 252° |
| 2026-05-08 21:07 | -23.34957 | 31.82421 | 34091 ft | 423 kts | 252° |
| 2026-05-08 21:08 | -23.37317 | 31.76527 | 34097 ft | 423 kts | 252° |
| 2026-05-08 21:08 | -23.39662 | 31.70663 | 34094 ft | 423 kts | 252° |
| 2026-05-08 21:09 | -23.42014 | 31.64769 | 34102 ft | 423 kts | 252° |
| 2026-05-08 21:09 | -23.44395 | 31.58890 | 34095 ft | 424 kts | 250° |
| 2026-05-08 21:10 | -23.47172 | 31.53183 | 34099 ft | 428 kts | 246° |
| 2026-05-08 21:10 | -23.50269 | 31.47612 | 34099 ft | 429 kts | 245° |
| 2026-05-08 21:11 | -23.53355 | 31.42096 | 34091 ft | 427 kts | 245° |
| 2026-05-08 21:11 | -23.56451 | 31.36549 | 34082 ft | 427 kts | 245° |
| 2026-05-08 21:12 | -23.59538 | 31.31009 | 34080 ft | 427 kts | 245° |
| 2026-05-08 21:12 | -23.62623 | 31.25473 | 34081 ft | 427 kts | 245° |
| 2026-05-08 21:13 | -23.65691 | 31.19961 | 34082 ft | 426 kts | 245° |
| 2026-05-08 21:13 | -23.68777 | 31.14410 | 34089 ft | 426 kts | 246° |
| 2026-05-08 21:14 | -23.71859 | 31.08862 | 34089 ft | 426 kts | 246° |
| 2026-05-08 21:14 | -23.74914 | 31.03351 | 34101 ft | 426 kts | 246° |
| 2026-05-08 21:15 | -23.77983 | 30.97809 | 34105 ft | 426 kts | 246° |
| 2026-05-08 21:15 | -23.81041 | 30.92282 | 34107 ft | 426 kts | 246° |
| 2026-05-08 21:16 | -23.84105 | 30.86737 | 34109 ft | 425 kts | 246° |
| 2026-05-08 21:16 | -23.87169 | 30.81187 | 34114 ft | 425 kts | 246° |
| 2026-05-08 21:17 | -23.90228 | 30.75639 | 34117 ft | 425 kts | 246° |
| 2026-05-08 21:17 | -23.93267 | 30.70122 | 34117 ft | 425 kts | 246° |
| 2026-05-08 21:18 | -23.96322 | 30.64569 | 34119 ft | 425 kts | 246° |
| 2026-05-08 21:18 | -23.99370 | 30.59023 | 34118 ft | 425 kts | 246° |
| 2026-05-08 21:19 | -24.01903 | 30.54409 | 34124 ft | 424 kts | 246° |
| 2026-05-08 21:19 | -24.04946 | 30.48862 | 34127 ft | 424 kts | 246° |
| 2026-05-08 21:20 | -24.07962 | 30.43354 | 34128 ft | 423 kts | 246° |
| 2026-05-08 21:20 | -24.10992 | 30.37816 | 34136 ft | 424 kts | 246° |
| 2026-05-08 21:21 | -24.14019 | 30.32274 | 34139 ft | 424 kts | 246° |
| 2026-05-08 21:21 | -24.17051 | 30.26720 | 34151 ft | 424 kts | 246° |
| 2026-05-08 21:22 | -24.20078 | 30.21168 | 34156 ft | 424 kts | 246° |
| 2026-05-08 21:22 | -24.23082 | 30.15651 | 34154 ft | 424 kts | 246° |
| 2026-05-08 21:23 | -24.26104 | 30.10096 | 34163 ft | 424 kts | 246° |
| 2026-05-08 21:23 | -24.29124 | 30.04536 | 34170 ft | 423 kts | 246° |
| 2026-05-08 21:24 | -24.32145 | 29.98965 | 34175 ft | 423 kts | 246° |
| 2026-05-08 21:24 | -24.35161 | 29.93399 | 34180 ft | 423 kts | 246° |
| 2026-05-08 21:25 | -24.38169 | 29.87833 | 34182 ft | 423 kts | 246° |
| 2026-05-08 21:25 | -24.41165 | 29.82305 | 34182 ft | 423 kts | 246° |
| 2026-05-08 21:26 | -24.44222 | 29.76763 | 34189 ft | 424 kts | 246° |
| 2026-05-08 21:26 | -24.47276 | 29.71219 | 34191 ft | 423 kts | 246° |
| 2026-05-08 21:27 | -24.50846 | 29.66050 | 34186 ft | 436 kts | 232° |
| 2026-05-08 21:27 | -24.55467 | 29.61631 | 34189 ft | 440 kts | 229° |
| 2026-05-08 21:28 | -24.60118 | 29.57246 | 34190 ft | 440 kts | 229° |
| 2026-05-08 21:28 | -24.64716 | 29.52876 | 34191 ft | 439 kts | 230° |
| 2026-05-08 21:29 | -24.69340 | 29.48460 | 34192 ft | 439 kts | 230° |
| 2026-05-08 21:29 | -24.73956 | 29.44041 | 34191 ft | 439 kts | 230° |
| 2026-05-08 21:30 | -24.78570 | 29.39617 | 34211 ft | 439 kts | 230° |
| 2026-05-08 21:30 | -24.83177 | 29.35194 | 34212 ft | 439 kts | 230° |
| 2026-05-08 21:31 | -24.87745 | 29.30806 | 34213 ft | 437 kts | 230° |
| 2026-05-08 21:31 | -24.92336 | 29.26390 | 34199 ft | 437 kts | 230° |
| 2026-05-08 21:32 | -24.96920 | 29.21976 | 34200 ft | 437 kts | 230° |
| 2026-05-08 21:32 | -25.01481 | 29.17579 | 34200 ft | 437 kts | 230° |
| 2026-05-08 21:33 | -25.06070 | 29.13149 | 33743 ft | 439 kts | 230° |
| 2026-05-08 21:33 | -25.08378 | 29.10917 | 33097 ft | 440 kts | 230° |
| 2026-05-08 21:33 | -25.10685 | 29.08688 | 32464 ft | 440 kts | 230° |
| 2026-05-08 21:33 | -25.12968 | 29.06479 | 31825 ft | 440 kts | 229° |
| 2026-05-08 21:34 | -25.15272 | 29.04249 | 31187 ft | 440 kts | 229° |
| 2026-05-08 21:34 | -25.17578 | 29.02018 | 30540 ft | 439 kts | 229° |
| 2026-05-08 21:34 | -25.19865 | 28.99805 | 29998 ft | 437 kts | 229° |
| 2026-05-08 21:34 | -25.22137 | 28.97607 | 29608 ft | 430 kts | 229° |
| 2026-05-08 21:35 | -25.24380 | 28.95437 | 29154 ft | 426 kts | 229° |
| 2026-05-08 21:35 | -25.26605 | 28.93283 | 28668 ft | 422 kts | 229° |
| 2026-05-08 21:35 | -25.28770 | 28.91180 | 28233 ft | 417 kts | 229° |
| 2026-05-08 21:35 | -25.30944 | 28.89070 | 27809 ft | 413 kts | 229° |
| 2026-05-08 21:36 | -25.33089 | 28.86984 | 27404 ft | 408 kts | 229° |
| 2026-05-08 21:36 | -25.35195 | 28.84938 | 27273 ft | 396 kts | 229° |
| 2026-05-08 21:36 | -25.37234 | 28.82961 | 27212 ft | 382 kts | 229° |
| 2026-05-08 21:36 | -25.39197 | 28.81052 | 27138 ft | 369 kts | 230° |
| 2026-05-08 21:37 | -25.41095 | 28.79204 | 27054 ft | 356 kts | 230° |
| 2026-05-08 21:37 | -25.42926 | 28.77420 | 26969 ft | 344 kts | 230° |
| 2026-05-08 21:37 | -25.44699 | 28.75694 | 26884 ft | 333 kts | 229° |
| 2026-05-08 21:37 | -25.46497 | 28.74117 | 26778 ft | 328 kts | 226° |
| 2026-05-08 21:38 | -25.48378 | 28.72667 | 26410 ft | 329 kts | 224° |
| 2026-05-08 21:38 | -25.50278 | 28.71262 | 26044 ft | 327 kts | 223° |
| 2026-05-08 21:38 | -25.52171 | 28.69866 | 25698 ft | 325 kts | 223° |
| 2026-05-08 21:38 | -25.54022 | 28.68502 | 25347 ft | 322 kts | 223° |
| 2026-05-08 21:39 | -25.55880 | 28.67130 | 25000 ft | 320 kts | 223° |
| 2026-05-08 21:39 | -25.57727 | 28.65766 | 24670 ft | 317 kts | 223° |
| 2026-05-08 21:39 | -25.59567 | 28.64405 | 24332 ft | 315 kts | 223° |
| 2026-05-08 21:39 | -25.61387 | 28.63062 | 23999 ft | 312 kts | 223° |
| 2026-05-08 21:40 | -25.63187 | 28.61732 | 23671 ft | 310 kts | 223° |
| 2026-05-08 21:40 | -25.64978 | 28.60408 | 23348 ft | 308 kts | 223° |
| 2026-05-08 21:40 | -25.66754 | 28.59093 | 23035 ft | 305 kts | 223° |
| 2026-05-08 21:41 | -25.70269 | 28.56489 | 22375 ft | 302 kts | 223° |
| 2026-05-08 21:41 | -25.72007 | 28.55201 | 22060 ft | 300 kts | 223° |
| 2026-05-08 21:41 | -25.73715 | 28.53936 | 21748 ft | 298 kts | 222° |
| 2026-05-08 21:41 | -25.75532 | 28.52775 | 21415 ft | 303 kts | 214° |
| 2026-05-08 21:42 | -25.77505 | 28.51891 | 21100 ft | 308 kts | 207° |
| 2026-05-08 21:42 | -25.79597 | 28.51272 | 20774 ft | 311 kts | 202° |
| 2026-05-08 21:42 | -25.81705 | 28.50738 | 20471 ft | 310 kts | 202° |
| 2026-05-08 21:42 | -25.83813 | 28.50215 | 20159 ft | 309 kts | 202° |
| 2026-05-08 21:43 | -25.85902 | 28.49695 | 19845 ft | 307 kts | 202° |
| 2026-05-08 21:43 | -25.87980 | 28.49175 | 19556 ft | 304 kts | 202° |
| 2026-05-08 21:43 | -25.90017 | 28.48661 | 19264 ft | 304 kts | 202° |
| 2026-05-08 21:43 | -25.92079 | 28.48139 | 18988 ft | 303 kts | 201° |
| 2026-05-08 21:44 | -25.94137 | 28.47617 | 18729 ft | 301 kts | 201° |
| 2026-05-08 21:44 | -25.96181 | 28.47100 | 18492 ft | 299 kts | 201° |
| 2026-05-08 21:44 | -25.98206 | 28.46585 | 18240 ft | 298 kts | 201° |
| 2026-05-08 21:44 | -26.00223 | 28.46073 | 17980 ft | 296 kts | 201° |
| 2026-05-08 21:45 | -26.02199 | 28.45572 | 17622 ft | 294 kts | 201° |
| 2026-05-08 21:45 | -26.04203 | 28.45060 | 17211 ft | 294 kts | 201° |
| 2026-05-08 21:45 | -26.06194 | 28.44553 | 16905 ft | 292 kts | 201° |
| 2026-05-08 21:45 | -26.08173 | 28.44049 | 16575 ft | 290 kts | 201° |
| 2026-05-08 21:46 | -26.10141 | 28.43548 | 16228 ft | 289 kts | 201° |
| 2026-05-08 21:46 | -26.12076 | 28.43055 | 15917 ft | 287 kts | 201° |
| 2026-05-08 21:46 | -26.14026 | 28.42559 | 15632 ft | 287 kts | 200° |
| 2026-05-08 21:46 | -26.15966 | 28.42065 | 15349 ft | 286 kts | 200° |
| 2026-05-08 21:47 | -26.17901 | 28.41573 | 15074 ft | 285 kts | 200° |
| 2026-05-08 21:47 | -26.19823 | 28.41084 | 14761 ft | 282 kts | 200° |
| 2026-05-08 21:47 | -26.21736 | 28.40597 | 14412 ft | 282 kts | 200° |
| 2026-05-08 21:47 | -26.23639 | 28.40104 | 14060 ft | 280 kts | 200° |
| 2026-05-08 21:48 | -26.25526 | 28.39610 | 13709 ft | 279 kts | 200° |
| 2026-05-08 21:48 | -26.27413 | 28.39110 | 13368 ft | 278 kts | 200° |
| 2026-05-08 21:48 | -26.29244 | 28.38476 | 12998 ft | 269 kts | 216° |
| 2026-05-08 21:48 | -26.30689 | 28.37199 | 12591 ft | 261 kts | 231° |
| 2026-05-08 21:49 | -26.31901 | 28.35736 | 12270 ft | 258 kts | 233° |
| 2026-05-08 21:49 | -26.33039 | 28.34200 | 11912 ft | 254 kts | 243° |
| 2026-05-08 21:49 | -26.33605 | 28.32369 | 11441 ft | 251 kts | 263° |
| 2026-05-08 21:49 | -26.34059 | 28.30499 | 11086 ft | 252 kts | 244° |
| 2026-05-08 21:50 | -26.35028 | 28.28853 | 10711 ft | 253 kts | 236° |
| 2026-05-08 21:50 | -26.36122 | 28.27297 | 10271 ft | 257 kts | 232° |
| 2026-05-08 21:50 | -26.37323 | 28.25797 | 9825 ft | 260 kts | 232° |
| 2026-05-08 21:50 | -26.38197 | 28.24048 | 9339 ft | 260 kts | 259° |
| 2026-05-08 21:51 | -26.38178 | 28.22101 | 9118 ft | 253 kts | 285° |
| 2026-05-08 21:51 | -26.37414 | 28.20380 | 8892 ft | 248 kts | 313° |
| 2026-05-08 21:51 | -26.36005 | 28.19326 | 8641 ft | 245 kts | 339° |
| 2026-05-08 21:51 | -26.34383 | 28.18849 | 8436 ft | 236 kts | 347° |
| 2026-05-08 21:52 | -26.32783 | 28.18508 | 8173 ft | 231 kts | 351° |
| 2026-05-08 21:52 | -26.31207 | 28.18447 | 8007 ft | 221 kts | 4° |
| 2026-05-08 21:52 | -26.29770 | 28.18709 | 7988 ft | 202 kts | 12° |
| 2026-05-08 21:52 | -26.28433 | 28.19103 | 7972 ft | 189 kts | 15° |
| 2026-05-08 21:53 | -26.27201 | 28.19504 | 7949 ft | 184 kts | 15° |
| 2026-05-08 21:53 | -26.25976 | 28.19901 | 7863 ft | 183 kts | 15° |
| 2026-05-08 21:53 | -26.24760 | 28.20299 | 7627 ft | 181 kts | 15° |
| 2026-05-08 21:53 | -26.23550 | 28.20694 | 7382 ft | 181 kts | 15° |
| 2026-05-08 21:54 | -26.22342 | 28.21075 | 7112 ft | 179 kts | 15° |
| 2026-05-08 21:54 | -26.21140 | 28.21441 | 6894 ft | 179 kts | 14° |
| 2026-05-08 21:54 | -26.19939 | 28.21796 | 6646 ft | 178 kts | 14° |
| 2026-05-08 21:54 | -26.18740 | 28.22152 | 6448 ft | 178 kts | 15° |
| 2026-05-08 21:55 | -26.17555 | 28.22546 | 6249 ft | 177 kts | 17° |
| 2026-05-08 21:55 | -26.16387 | 28.22916 | 5978 ft | 177 kts | 13° |
| 2026-05-08 21:55 | -26.15203 | 28.23263 | 5710 ft | 175 kts | 15° |
| 2026-05-08 21:56 | -26.13323 | 28.23846 | 5555 ft | 73 kts | 15° |
| 2026-05-08 21:56 | -26.12988 | 28.23949 | 5553 ft | 30 kts | 15° |
| 2026-05-08 21:56 | -26.12866 | 28.23984 | 5554 ft | 15 kts | 11° |
| 2026-05-08 21:56 | -26.12756 | 28.23992 | 5553 ft | 17 kts | 0° |
| 2026-05-08 21:57 | -26.12648 | 28.23983 | 5550 ft | 10 kts | 347° |
| 2026-05-08 21:57 | -26.12591 | 28.23966 | 5553 ft | 7 kts | 340° |
| 2026-05-08 21:57 | -26.12553 | 28.23935 | 5550 ft | 6 kts | 295° |
| 2026-05-08 21:57 | -26.12560 | 28.23892 | 5552 ft | 6 kts | 242° |
| 2026-05-08 21:58 | -26.12587 | 28.23872 | 5552 ft | 4 kts | 201° |
| 2026-05-08 21:58 | -26.12607 | 28.23864 | 5553 ft | 2 kts | 198° |
| 2026-05-08 21:58 | -26.12616 | 28.23860 | 5553 ft | 1 kts | 198° |
| 2026-05-08 21:58 | -26.12622 | 28.23858 | 5553 ft | 1 kts | 198° |
| 2026-05-08 21:59 | -26.12630 | 28.23855 | 5554 ft | 2 kts | 196° |
| 2026-05-08 21:59 | -26.12652 | 28.23848 | 5555 ft | 7 kts | 196° |
| 2026-05-08 21:59 | -26.12723 | 28.23826 | 5557 ft | 11 kts | 196° |
| 2026-05-08 21:59 | -26.12792 | 28.23804 | 5553 ft | 3 kts | 196° |
| 2026-05-08 22:00 | -26.12815 | 28.23790 | 5553 ft | 4 kts | 222° |
| 2026-05-08 22:00 | -26.12827 | 28.23771 | 5558 ft | 2 kts | 249° |
| 2026-05-08 22:00 | -26.12829 | 28.23736 | 5557 ft | 9 kts | 271° |
| 2026-05-08 22:00 | -26.12824 | 28.23666 | 5556 ft | 10 kts | 275° |
| 2026-05-08 22:01 | -26.12817 | 28.23588 | 5557 ft | 11 kts | 275° |
| 2026-05-08 22:01 | -26.12811 | 28.23513 | 5555 ft | 7 kts | 275° |
| 2026-05-08 22:01 | -26.12807 | 28.23460 | 5558 ft | 3 kts | 275° |
| 2026-05-08 22:01 | -26.12808 | 28.23434 | 5555 ft | 4 kts | 250° |
| 2026-05-08 22:02 | -26.12824 | 28.23415 | 5555 ft | 4 kts | 211° |
| 2026-05-08 22:02 | -26.12849 | 28.23408 | 5558 ft | 4 kts | 186° |
| 2026-05-08 22:02 | -26.12880 | 28.23405 | 5556 ft | 3 kts | 186° |
| 2026-05-08 22:02 | -26.12889 | 28.23404 | 5555 ft | 1 kts | 186° |
| 2026-05-08 22:03 | -26.12894 | 28.23403 | 5558 ft | 0 kts | 186° |